createdAt,value
2023-02-01T00:02:02.102Z,102232.88
2023-02-01T00:04:31.552Z,102178.75
2023-02-01T00:07:00.347Z,102221.94
2023-02-01T00:09:31.493Z,102033.38
2023-02-01T00:12:03.367Z,102099.59
2023-02-01T00:14:33.326Z,102071.16
2023-02-01T00:17:05.388Z,102210.34
2023-02-01T00:19:34.377Z,102153.28
2023-02-01T00:22:03.225Z,102183.31
2023-02-01T00:24:31.714Z,102211.06
2023-02-01T00:27:01.489Z,102114.53
2023-02-01T00:29:30.014Z,102198.47
2023-02-01T00:31:58.446Z,102193.22
2023-02-01T00:34:33.128Z,102158.78
2023-02-01T00:37:01.578Z,102213.31
2023-02-01T00:39:31.672Z,102149.59
2023-02-01T00:42:04.567Z,102200.00
2023-02-01T00:44:35.460Z,102195.19
2023-02-01T00:47:04.319Z,102173.03
2023-02-01T00:49:34.193Z,102200.28
2023-02-01T00:52:04.236Z,102110.50
2023-02-01T00:54:35.625Z,102213.34
2023-02-01T00:57:04.065Z,102211.56
2023-02-01T00:59:32.447Z,102186.91
2023-02-01T01:02:01.417Z,102202.72
2023-02-01T01:04:36.930Z,102205.47
2023-02-01T01:07:06.652Z,102159.97
2023-02-01T01:09:35.237Z,102199.94
2023-02-01T01:12:04.224Z,102134.69
2023-02-01T01:14:34.247Z,102032.75
2023-02-01T01:17:08.320Z,102139.66
2023-02-01T01:19:38.717Z,102196.53
2023-02-01T01:22:07.674Z,101963.53
2023-02-01T01:24:36.258Z,102149.50
2023-02-01T01:27:05.157Z,102191.16
2023-02-01T01:29:33.596Z,102190.91
2023-02-01T01:32:02.259Z,102196.13
2023-02-01T01:34:31.374Z,102169.09
2023-02-01T01:37:01.267Z,102194.06
2023-02-01T01:39:29.777Z,102199.75
2023-02-01T01:41:58.661Z,102175.00
2023-02-01T01:45:02.561Z,102183.56
2023-02-01T01:47:37.932Z,102184.56
2023-02-01T01:50:12.589Z,102184.19
2023-02-01T01:52:46.291Z,102059.88
2023-02-01T01:55:17.113Z,102146.25
2023-02-01T01:57:54.980Z,102134.66
2023-02-01T02:00:24.128Z,102190.69
2023-02-01T02:03:04.453Z,102189.31
2023-02-01T02:05:33.244Z,102143.41
2023-02-01T02:08:03.359Z,102154.78
2023-02-01T02:10:47.366Z,102179.56
2023-02-01T02:13:18.019Z,102168.84
2023-02-01T02:16:00.757Z,102013.13
2023-02-01T02:18:41.915Z,102109.28
2023-02-01T02:21:44.397Z,102016.09
2023-02-01T02:25:03.569Z,102050.03
2023-02-01T02:27:52.569Z,102161.69
2023-02-01T02:30:45.490Z,102136.16
2023-02-01T02:33:54.113Z,102126.31
2023-02-01T02:36:37.414Z,102103.56
2023-02-01T02:39:16.873Z,102161.81
2023-02-01T02:42:13.725Z,102169.94
2023-02-01T02:45:09.832Z,102029.88
2023-02-01T02:47:48.397Z,102146.13
2023-02-01T02:50:43.964Z,102054.06
2023-02-01T02:53:37.550Z,102100.53
2023-02-01T02:56:30.894Z,102024.38
2023-02-01T02:59:18.773Z,102146.63
2023-02-01T03:02:05.304Z,102150.13
2023-02-01T03:04:34.119Z,102148.59
2023-02-01T03:07:17.052Z,102101.88
2023-02-01T03:09:49.635Z,102116.78
2023-02-01T03:12:37.063Z,102099.81
2023-02-01T03:15:14.254Z,102103.97
2023-02-01T03:17:48.729Z,102102.34
2023-02-01T03:20:22.195Z,102151.47
2023-02-01T03:22:56.085Z,102050.88
2023-02-01T03:25:30.000Z,102102.03
2023-02-01T03:28:04.888Z,102141.56
2023-02-01T03:30:39.647Z,102067.69
2023-02-01T03:33:15.432Z,102134.16
2023-02-01T03:35:52.240Z,102085.06
2023-02-01T03:38:25.922Z,102131.66
2023-02-01T03:41:07.051Z,102124.59
2023-02-01T03:43:52.618Z,102087.16
2023-02-01T03:46:34.749Z,102066.88
2023-02-01T03:49:13.759Z,102068.00
2023-02-01T03:51:43.542Z,102082.84
2023-02-01T03:54:20.310Z,102108.34
2023-02-01T03:56:53.548Z,102142.38
2023-02-01T03:59:22.035Z,102152.28
2023-02-01T04:01:50.561Z,102136.88
2023-02-01T04:04:22.837Z,102117.19
2023-02-01T04:06:55.437Z,102120.28
2023-02-01T04:09:25.656Z,102122.38
2023-02-01T04:11:54.048Z,102123.22
2023-02-01T04:14:26.593Z,102003.50
2023-02-01T04:16:55.821Z,102019.56
2023-02-01T04:19:25.501Z,102128.34
2023-02-01T04:21:53.932Z,102048.44
2023-02-01T04:24:25.132Z,102136.06
2023-02-01T04:26:56.305Z,102142.69
2023-02-01T04:29:24.963Z,102124.16
2023-02-01T04:31:56.265Z,102138.41
2023-02-01T04:34:26.051Z,102124.09
2023-02-01T04:36:56.380Z,102132.72
2023-02-01T04:39:24.765Z,102071.91
2023-02-01T04:41:54.467Z,102131.09
2023-02-01T04:44:26.389Z,102121.19
2023-02-01T04:46:54.823Z,102095.13
2023-02-01T04:49:23.527Z,102034.25
2023-02-01T04:51:52.211Z,102084.56
2023-02-01T04:54:21.246Z,102133.91
2023-02-01T04:56:49.711Z,102142.22
2023-02-01T04:59:21.054Z,102056.56
2023-02-01T05:01:49.626Z,102088.28
2023-02-01T05:04:28.751Z,102129.19
2023-02-01T05:06:57.976Z,102095.56
2023-02-01T05:09:27.796Z,102049.22
2023-02-01T05:12:13.942Z,101985.88
2023-02-01T05:14:43.830Z,102049.94
2023-02-01T05:17:12.626Z,102044.19
2023-02-01T05:19:43.419Z,102045.84
2023-02-01T05:22:13.690Z,102095.19
2023-02-01T05:24:42.014Z,102102.31
2023-02-01T05:27:10.620Z,102108.81
2023-02-01T05:29:40.344Z,102105.97
2023-02-01T05:32:22.192Z,102072.00
2023-02-01T05:34:51.389Z,102069.19
2023-02-01T05:37:27.668Z,102100.63
2023-02-01T05:39:56.555Z,102112.00
2023-02-01T05:42:26.358Z,102070.44
2023-02-01T05:44:54.794Z,102119.94
2023-02-01T05:47:29.633Z,102124.03
2023-02-01T05:49:59.444Z,101991.22
2023-02-01T05:52:28.586Z,102115.94
2023-02-01T05:54:58.149Z,102056.72
2023-02-01T05:57:27.122Z,102060.53
2023-02-01T05:59:56.174Z,101979.00
2023-02-01T06:02:30.675Z,102075.38
2023-02-01T06:05:04.659Z,102058.41
2023-02-01T06:07:36.235Z,102031.16
2023-02-01T06:10:05.679Z,102090.56
2023-02-01T06:12:34.233Z,102129.75
2023-02-01T06:15:02.820Z,102102.16
2023-02-01T06:17:32.670Z,102106.75
2023-02-01T06:20:04.464Z,102062.09
2023-02-01T06:22:41.025Z,102127.31
2023-02-01T06:25:12.231Z,102140.06
2023-02-01T06:27:40.938Z,102115.47
2023-02-01T06:30:11.868Z,102105.06
2023-02-01T06:32:40.686Z,102086.66
2023-02-01T06:35:12.477Z,102143.28
2023-02-01T06:37:40.870Z,102153.97
2023-02-01T06:40:13.893Z,102140.38
2023-02-01T06:42:42.563Z,102144.28
2023-02-01T06:45:13.194Z,102152.41
2023-02-01T06:47:43.706Z,101998.31
2023-02-01T06:50:14.109Z,102154.69
2023-02-01T06:52:45.002Z,102105.91
2023-02-01T06:55:14.128Z,102017.13
2023-02-01T06:57:44.910Z,102156.75
2023-02-01T07:00:17.065Z,102033.44
2023-02-01T07:08:04.063Z,102152.34
2023-02-01T07:10:32.557Z,102092.75
2023-02-01T07:13:01.494Z,102118.81
2023-02-01T07:15:32.775Z,102158.38
2023-02-01T07:18:01.697Z,102135.91
2023-02-01T07:20:31.168Z,102120.69
2023-02-01T07:23:03.479Z,102070.47
2023-02-01T07:25:32.075Z,102162.00
2023-02-01T07:28:01.131Z,102173.00
2023-02-01T07:30:30.004Z,102048.13
2023-02-01T07:33:02.283Z,102168.78
2023-02-01T07:35:32.205Z,102076.34
2023-02-01T07:38:00.869Z,102172.75
2023-02-01T07:40:31.545Z,102141.09
2023-02-01T07:43:00.912Z,102139.28
2023-02-01T07:45:30.559Z,102178.59
2023-02-01T07:48:02.021Z,102141.56
2023-02-01T07:50:34.472Z,102182.34
2023-02-01T07:53:05.270Z,102113.13
2023-02-01T07:55:37.575Z,102069.00
2023-02-01T07:58:06.697Z,102033.69
2023-02-01T08:00:55.149Z,102160.66
2023-02-01T08:03:24.186Z,102196.88
2023-02-01T08:05:59.578Z,102205.91
2023-02-01T08:08:28.991Z,102175.25
2023-02-01T08:11:05.889Z,102134.50
2023-02-01T08:13:36.270Z,102180.44
2023-02-01T08:16:09.292Z,102122.28
2023-02-01T08:18:41.277Z,102122.63
2023-02-01T08:21:12.597Z,102189.16
2023-02-01T08:23:43.117Z,102174.66
2023-02-01T08:26:23.479Z,102200.53
2023-02-01T08:28:55.426Z,102133.03
2023-02-01T08:31:27.244Z,102170.41
2023-02-01T08:34:00.942Z,102177.53
2023-02-01T08:36:33.994Z,102174.94
2023-02-01T08:39:06.747Z,102173.31
2023-02-01T08:42:04.339Z,102129.31
2023-02-01T08:44:33.731Z,102115.47
2023-02-01T08:47:03.393Z,102116.69
2023-02-01T08:49:33.956Z,102047.59
2023-02-01T08:52:14.399Z,102162.81
2023-02-01T08:54:44.447Z,102152.84
2023-02-01T08:57:15.101Z,102162.97
2023-02-01T08:59:45.016Z,102158.06
2023-02-01T09:02:18.146Z,102140.03
2023-02-01T09:04:47.343Z,102138.34
2023-02-01T09:07:18.155Z,101888.59
2023-02-01T09:09:47.439Z,102132.91
2023-02-01T09:12:21.023Z,102124.16
2023-02-01T09:14:50.122Z,102111.63
2023-02-01T09:17:19.910Z,102119.72
2023-02-01T09:19:48.678Z,102123.19
2023-02-01T09:22:17.704Z,102144.13
2023-02-01T09:24:46.399Z,102099.47
2023-02-01T09:27:16.530Z,102136.34
2023-02-01T09:29:45.073Z,102109.63
2023-02-01T09:32:18.229Z,102064.75
2023-02-01T09:34:47.855Z,102135.09
2023-02-01T09:37:18.896Z,102096.06
2023-02-01T09:39:47.669Z,101880.28
2023-02-01T09:42:45.623Z,102001.06
2023-02-01T09:45:26.121Z,101981.69
2023-02-01T09:48:00.450Z,102100.81
2023-02-01T09:50:39.057Z,102126.81
2023-02-01T09:53:16.260Z,102133.91
2023-02-01T09:55:54.434Z,102142.91
2023-02-01T09:58:35.427Z,102105.31
2023-02-01T10:01:12.615Z,102114.25
2023-02-01T10:03:42.197Z,102143.41
2023-02-01T10:06:38.622Z,102136.19
2023-02-01T10:09:32.456Z,102127.28
2023-02-01T10:12:46.122Z,102048.13
2023-02-01T10:15:31.064Z,102113.63
2023-02-01T10:18:49.703Z,102121.22
2023-02-01T10:21:39.897Z,102172.16
2023-02-01T10:24:50.304Z,102073.34
2023-02-01T10:27:24.496Z,102073.63
2023-02-01T10:30:02.783Z,102177.56
2023-02-01T10:32:39.387Z,102125.81
2023-02-01T10:35:17.009Z,102161.50
2023-02-01T10:37:47.892Z,102156.50
2023-02-01T10:40:23.127Z,102153.06
2023-02-01T10:42:54.356Z,102141.75
2023-02-01T10:45:27.395Z,102098.31
2023-02-01T10:47:59.990Z,102100.50
2023-02-01T10:50:40.644Z,102143.31
2023-02-01T10:53:19.413Z,102153.63
2023-02-01T10:55:53.724Z,102130.00
2023-02-01T10:58:28.855Z,102156.34
2023-02-01T11:01:03.880Z,102148.59
2023-02-01T11:03:46.460Z,102148.13
2023-02-01T11:06:26.680Z,102120.06
2023-02-01T11:08:58.276Z,102129.59
2023-02-01T11:11:27.566Z,102120.19
2023-02-01T11:14:00.228Z,102099.22
2023-02-01T11:16:37.066Z,102126.59
2023-02-01T11:19:07.701Z,102114.88
2023-02-01T11:21:38.750Z,102048.34
2023-02-01T11:24:19.422Z,102099.78
2023-02-01T11:26:49.004Z,102118.09
2023-02-01T11:29:24.187Z,102107.66
2023-02-01T11:31:52.755Z,102071.91
2023-02-01T11:34:27.880Z,102107.72
2023-02-01T11:36:59.856Z,102105.25
2023-02-01T11:39:31.530Z,102093.03
2023-02-01T11:42:08.538Z,102091.63
2023-02-01T11:44:40.427Z,102022.44
2023-02-01T11:47:28.198Z,102054.63
2023-02-01T11:50:00.460Z,102073.19
2023-02-01T11:53:00.206Z,102090.25
2023-02-01T11:55:48.996Z,102097.09
2023-02-01T11:58:39.783Z,102103.84
2023-02-01T12:01:35.395Z,102099.25
2023-02-01T12:04:46.513Z,102085.59
2023-02-01T12:07:22.409Z,102092.31
2023-02-01T12:10:13.473Z,102101.94
2023-02-01T12:12:56.843Z,102108.75
2023-02-01T12:15:49.846Z,102046.75
2023-02-01T12:19:08.373Z,102107.00
2023-02-01T12:21:56.947Z,102107.09
2023-02-01T12:24:49.772Z,102090.13
2023-02-01T12:28:02.190Z,102086.72
2023-02-01T12:31:14.163Z,102058.19
2023-02-01T12:34:09.782Z,102087.44
2023-02-01T12:36:48.775Z,102083.16
2023-02-01T12:39:31.685Z,102063.25
2023-02-01T12:42:11.311Z,102042.41
2023-02-01T12:45:13.926Z,102073.84
2023-02-01T12:47:49.951Z,102057.28
2023-02-01T12:50:29.894Z,102040.34
2023-02-01T12:53:11.661Z,102062.59
2023-02-01T12:55:51.481Z,102086.66
2023-02-01T12:58:29.045Z,101946.16
2023-02-01T13:01:04.759Z,101992.22
2023-02-01T13:03:42.131Z,102073.00
2023-02-01T13:06:16.246Z,102046.50
2023-02-01T13:08:54.647Z,102060.72
2023-02-01T13:11:30.007Z,102028.72
2023-02-01T13:14:06.245Z,102057.84
2023-02-01T13:16:41.167Z,102060.78
2023-02-01T13:19:20.299Z,102028.44
2023-02-01T13:21:54.581Z,102025.75
2023-02-01T13:24:39.419Z,102014.72
2023-02-01T13:27:08.126Z,102051.25
2023-02-01T13:29:52.637Z,102040.63
2023-02-01T13:33:53.020Z,102063.75
2023-02-01T13:36:07.506Z,102078.78
2023-02-01T13:39:32.628Z,102069.09
2023-02-01T13:42:05.718Z,102063.53
2023-02-01T13:44:41.579Z,102070.75
2023-02-01T13:47:25.150Z,102078.34
2023-02-01T13:49:56.948Z,102071.75
2023-02-01T13:52:40.353Z,102067.63
2023-02-01T13:55:36.618Z,102069.72
2023-02-01T13:58:17.842Z,102074.19
2023-02-01T14:00:50.959Z,102062.66
2023-02-01T14:03:22.671Z,102081.81
2023-02-01T14:06:36.727Z,102029.69
2023-02-01T14:09:33.499Z,102089.16
2023-02-01T14:12:49.389Z,102083.41
2023-02-01T14:15:29.176Z,102041.63
2023-02-01T14:18:00.167Z,102085.22
2023-02-01T14:20:54.252Z,102076.22
2023-02-01T14:23:30.978Z,102089.78
2023-02-01T14:26:26.849Z,102083.63
2023-02-01T14:29:07.039Z,102084.63
2023-02-01T14:31:56.659Z,102020.22
2023-02-01T14:34:36.482Z,102055.47
2023-02-01T14:37:08.853Z,102088.91
2023-02-01T14:39:56.187Z,102041.03
2023-02-01T14:42:29.563Z,102066.31
2023-02-01T14:45:41.192Z,102085.84
2023-02-01T14:48:50.549Z,102067.41
2023-02-01T14:51:26.385Z,102100.25
2023-02-01T14:53:58.306Z,102100.25
2023-02-01T14:56:29.771Z,102091.16
2023-02-01T14:59:13.910Z,102086.88
2023-02-01T15:01:52.558Z,102111.88
2023-02-01T15:04:23.155Z,102094.94
2023-02-01T15:06:57.655Z,102064.84
2023-02-01T15:09:31.343Z,102092.53
2023-02-01T15:12:04.194Z,102076.88
2023-02-01T15:14:38.081Z,102088.59
2023-02-01T15:17:23.815Z,102109.41
2023-02-01T15:19:56.848Z,102103.88
2023-02-01T15:22:28.776Z,102108.78
2023-02-01T15:24:59.384Z,102063.31
2023-02-01T15:27:29.519Z,102104.50
2023-02-01T15:30:08.465Z,102102.72
2023-02-01T15:32:40.407Z,102111.38
2023-02-01T15:35:48.860Z,102090.44
2023-02-01T15:38:44.286Z,102110.53
2023-02-01T15:41:17.438Z,102120.59
2023-02-01T15:43:51.341Z,102049.50
2023-02-01T15:46:26.606Z,102113.31
2023-02-01T15:48:58.690Z,102086.84
2023-02-01T15:51:33.829Z,102119.00
2023-02-01T15:54:08.941Z,102096.22
2023-02-01T15:56:42.490Z,102000.06
2023-02-01T15:59:18.685Z,102111.34
2023-02-01T16:01:47.725Z,102107.38
2023-02-01T16:04:22.295Z,102113.00
2023-02-01T16:06:56.669Z,102128.75
2023-02-01T16:09:37.251Z,102127.00
2023-02-01T16:12:30.631Z,102137.56
2023-02-01T16:14:59.661Z,102130.13
2023-02-01T16:17:28.787Z,102145.78
2023-02-01T16:20:00.568Z,102130.91
2023-02-01T16:22:29.509Z,102139.13
2023-02-01T16:24:59.892Z,102147.66
2023-02-01T16:27:28.772Z,102161.72
2023-02-01T16:29:57.787Z,102149.78
2023-02-01T16:32:27.702Z,102096.13
2023-02-01T16:34:58.831Z,102159.66
2023-02-01T16:37:29.296Z,102119.19
2023-02-01T16:40:01.897Z,102161.66
2023-02-01T16:42:32.258Z,102158.56
2023-02-01T16:45:00.996Z,102168.84
2023-02-01T16:47:29.953Z,102130.97
2023-02-01T16:50:01.463Z,102169.00
2023-02-01T16:52:31.435Z,102170.59
2023-02-01T16:55:01.773Z,102160.81
2023-02-01T16:57:31.482Z,102178.25
2023-02-01T17:00:18.071Z,102139.13
2023-02-01T17:02:51.004Z,102174.75
2023-02-01T17:05:21.028Z,102198.31
2023-02-01T17:07:49.623Z,102146.59
2023-02-01T17:10:33.465Z,102178.75
2023-02-01T17:13:02.789Z,102182.38
2023-02-01T17:15:38.170Z,102178.69
2023-02-01T17:18:15.060Z,102197.00
2023-02-01T17:20:44.861Z,102192.53
2023-02-01T17:23:14.336Z,102180.16
2023-02-01T17:25:44.083Z,102189.13
2023-02-01T17:28:13.528Z,102184.59
2023-02-01T17:30:43.468Z,102151.13
2023-02-01T17:33:23.656Z,102193.34
2023-02-01T17:35:52.841Z,102180.88
2023-02-01T17:38:21.738Z,102195.53
2023-02-01T17:40:59.022Z,102192.81
2023-02-01T17:43:28.116Z,102203.53
2023-02-01T17:46:01.481Z,102198.50
2023-02-01T17:48:30.137Z,102158.34
2023-02-01T17:50:59.794Z,102137.06
2023-02-01T17:53:28.968Z,102175.38
2023-02-01T17:55:59.279Z,102207.22
2023-02-01T17:58:30.428Z,102205.94
2023-02-01T18:00:59.843Z,102158.34
2023-02-01T18:03:33.155Z,102199.75
2023-02-01T18:06:02.607Z,102207.09
2023-02-01T18:08:33.894Z,102203.31
2023-02-01T18:11:04.081Z,102206.63
2023-02-01T18:13:33.442Z,102173.53
2023-02-01T18:16:02.260Z,102208.03
2023-02-01T18:18:33.385Z,102214.50
2023-02-01T18:21:02.296Z,102163.44
2023-02-01T18:23:31.044Z,102198.63
2023-02-01T18:25:59.735Z,102189.72
2023-02-01T18:28:29.692Z,102209.06
2023-02-01T18:30:58.556Z,102203.84
2023-02-01T18:33:27.214Z,102215.75
2023-02-01T18:35:55.652Z,102184.84
2023-02-01T18:38:24.601Z,102195.97
2023-02-01T18:40:58.076Z,102193.06
2023-02-01T18:43:27.949Z,102211.22
2023-02-01T18:45:56.919Z,102211.56
2023-02-01T18:48:25.661Z,102220.63
2023-02-01T18:50:57.566Z,102218.13
2023-02-01T18:53:28.197Z,102217.28
2023-02-01T18:55:59.653Z,102200.09
2023-02-01T18:58:29.963Z,102208.88
2023-02-01T19:01:06.100Z,102202.13
2023-02-01T19:03:34.556Z,102207.41
2023-02-01T19:06:13.359Z,102210.31
2023-02-01T19:08:42.065Z,102157.44
2023-02-01T19:11:11.619Z,102208.25
2023-02-01T19:13:42.192Z,102210.34
2023-02-01T19:16:13.370Z,102186.53
2023-02-01T19:18:42.243Z,102167.22
2023-02-01T19:21:14.288Z,102214.69
2023-02-01T19:23:43.794Z,102217.84
2023-02-01T19:26:13.622Z,102158.13
2023-02-01T19:28:47.707Z,102224.91
2023-02-01T19:31:17.433Z,102200.75
2023-02-01T19:33:46.294Z,102177.97
2023-02-01T19:36:14.981Z,102225.72
2023-02-01T19:38:43.786Z,102220.25
2023-02-01T19:41:12.441Z,102245.34
2023-02-01T19:43:42.723Z,102205.06
2023-02-01T19:46:11.394Z,102228.41
2023-02-01T19:48:39.879Z,102224.56
2023-02-01T19:51:09.327Z,102225.06
2023-02-01T19:53:37.817Z,102215.44
2023-02-01T19:56:07.692Z,102203.03
2023-02-01T19:58:36.848Z,102225.03
2023-02-01T20:01:07.378Z,102224.47
2023-02-01T20:03:35.953Z,102223.19
2023-02-01T20:06:06.274Z,102227.53
2023-02-01T20:08:34.770Z,102224.78
2023-02-01T20:11:06.694Z,102226.84
2023-02-01T20:13:38.658Z,102223.66
2023-02-01T20:16:08.929Z,102220.25
2023-02-01T20:18:39.100Z,102205.16
2023-02-01T20:21:07.620Z,102231.72
2023-02-01T20:23:36.734Z,102230.13
2023-02-01T20:26:07.867Z,102237.59
2023-02-01T20:28:36.446Z,102230.56
2023-02-01T20:31:05.901Z,102243.84
2023-02-01T20:33:35.869Z,102223.13
2023-02-01T20:36:04.611Z,102220.25
2023-02-01T20:38:33.001Z,102236.25
2023-02-01T20:41:06.039Z,102228.44
2023-02-01T20:43:34.555Z,102233.84
2023-02-01T20:46:03.225Z,102229.94
2023-02-01T20:48:32.723Z,102222.28
2023-02-01T20:51:02.900Z,102250.53
2023-02-01T20:53:32.769Z,102220.50
2023-02-01T20:56:01.151Z,102250.78
2023-02-01T20:58:30.775Z,102238.38
2023-02-01T21:00:59.501Z,102256.97
2023-02-01T21:03:30.558Z,102260.28
2023-02-01T21:06:02.456Z,102260.81
2023-02-01T21:08:32.326Z,102261.25
2023-02-01T21:11:03.516Z,102256.41
2023-02-01T21:13:34.870Z,102258.31
2023-02-01T21:16:05.156Z,102247.16
2023-02-01T21:18:33.596Z,102273.03
2023-02-01T21:21:07.317Z,102271.25
2023-02-01T21:23:44.971Z,102267.38
2023-02-01T21:26:14.612Z,102256.97
2023-02-01T21:28:43.403Z,102264.59
2023-02-01T21:31:13.939Z,102274.22
2023-02-01T21:33:42.518Z,102261.53
2023-02-01T21:36:18.805Z,102267.72
2023-02-01T21:38:50.031Z,102252.63
2023-02-01T21:41:37.046Z,102245.66
2023-02-01T21:44:05.722Z,102283.66
2023-02-01T21:46:34.436Z,102284.13
2023-02-01T21:49:05.349Z,102275.88
2023-02-01T21:51:38.372Z,102275.94
2023-02-01T21:54:07.854Z,102279.63
2023-02-01T21:56:36.490Z,102287.84
2023-02-01T21:59:05.153Z,102284.53
2023-02-01T22:01:34.921Z,102281.22
2023-02-01T22:04:06.178Z,102226.72
2023-02-01T22:06:38.033Z,102276.00
2023-02-01T22:09:07.467Z,102288.72
2023-02-01T22:11:35.849Z,102304.78
2023-02-01T22:14:04.523Z,102300.28
2023-02-01T22:16:33.480Z,102296.56
2023-02-01T22:19:02.036Z,102294.56
2023-02-01T22:21:30.845Z,102307.22
2023-02-01T22:24:03.973Z,102313.84
2023-02-01T22:26:32.468Z,102271.69
2023-02-01T22:29:00.850Z,102249.38
2023-02-01T22:31:29.377Z,102282.97
2023-02-01T22:33:58.199Z,102304.22
2023-02-01T22:36:26.609Z,102321.53
2023-02-01T22:38:55.567Z,102326.06
2023-02-01T22:41:25.873Z,102325.28
2023-02-01T22:43:54.269Z,102301.88
2023-02-01T22:46:26.407Z,102289.56
2023-02-01T22:48:55.425Z,102315.75
2023-02-01T22:51:27.010Z,102309.28
2023-02-01T22:53:57.979Z,102296.44
2023-02-01T22:56:31.585Z,102313.00
2023-02-01T22:59:02.260Z,102327.47
2023-02-01T23:01:30.971Z,102301.66
2023-02-01T23:04:01.063Z,102305.97
2023-02-01T23:06:30.797Z,102301.78
2023-02-01T23:09:03.227Z,102335.59
2023-02-01T23:11:33.135Z,102336.84
2023-02-01T23:14:02.026Z,102303.63
2023-02-01T23:16:30.456Z,102325.84
2023-02-01T23:18:58.853Z,102325.22
2023-02-01T23:21:27.702Z,102298.16
2023-02-01T23:23:59.938Z,102311.19
2023-02-01T23:26:32.524Z,102299.03
2023-02-01T23:29:02.315Z,102326.06
2023-02-01T23:31:35.507Z,102294.22
2023-02-01T23:34:05.378Z,102319.66
2023-02-01T23:36:34.231Z,102343.13
2023-02-01T23:39:02.793Z,102348.78
2023-02-01T23:41:32.970Z,102347.13
2023-02-01T23:44:00.791Z,102349.59
2023-02-01T23:46:32.911Z,102323.69
2023-02-01T23:49:02.825Z,102338.75
2023-02-01T23:51:32.025Z,102293.13
2023-02-01T23:54:01.197Z,102334.28
2023-02-01T23:56:33.622Z,102340.34
2023-02-01T23:59:02.683Z,102329.75
